createdAt,value
2018-09-19T00:00:24.040Z,3.20
2018-09-19T00:02:50.704Z,3.00
2018-09-19T00:05:17.872Z,3.33
2018-09-19T00:07:48.588Z,3.80
2018-09-19T00:10:17.599Z,2.90
2018-09-19T00:12:45.489Z,3.00
2018-09-19T00:15:13.198Z,2.97
2018-09-19T00:17:40.829Z,2.97
2018-09-19T00:20:08.977Z,3.10
2018-09-19T00:22:36.570Z,3.90
2018-09-19T00:25:04.091Z,3.27
2018-09-19T00:27:31.233Z,3.03
2018-09-19T00:29:59.826Z,2.90
2018-09-19T00:32:27.121Z,3.30
2018-09-19T00:34:54.466Z,3.10
2018-09-19T00:37:22.796Z,2.83
2018-09-19T00:39:50.466Z,3.40
2018-09-19T00:42:17.244Z,3.53
2018-09-19T00:44:45.207Z,3.83
2018-09-19T00:47:13.093Z,3.67
2018-09-19T00:49:40.401Z,3.10
2018-09-19T00:52:22.574Z,4.10
2018-09-19T00:54:50.608Z,3.53
2018-09-19T00:57:20.230Z,3.73
2018-09-19T00:59:47.695Z,3.57
2018-09-19T01:02:15.603Z,3.80
2018-09-19T01:04:42.905Z,3.47
2018-09-19T01:07:10.759Z,3.80
2018-09-19T01:09:38.475Z,3.37
2018-09-19T01:12:06.087Z,3.37
2018-09-19T01:14:32.833Z,4.23
2018-09-19T01:17:00.505Z,3.83
2018-09-19T01:19:31.220Z,3.23
2018-09-19T01:21:58.808Z,3.50
2018-09-19T01:24:26.391Z,3.70
2018-09-19T01:26:53.184Z,3.70
2018-09-19T01:29:21.273Z,3.80
2018-09-19T01:31:48.818Z,3.90
2018-09-19T01:34:16.606Z,3.80
2018-09-19T01:36:44.274Z,4.10
2018-09-19T01:39:11.639Z,3.40
2018-09-19T01:41:38.614Z,3.57
2018-09-19T01:44:06.329Z,4.87
2018-09-19T01:46:33.474Z,3.93
2018-09-19T01:49:00.489Z,5.07
2018-09-19T01:51:29.262Z,5.40
2018-09-19T01:53:56.481Z,4.93
2018-09-19T01:56:23.736Z,5.10
2018-09-19T01:58:51.669Z,4.63
2018-09-19T02:01:21.632Z,5.53
2018-09-19T02:03:49.814Z,5.47
2018-09-19T02:06:19.595Z,5.33
2018-09-19T02:08:47.033Z,5.00
2018-09-19T02:11:15.490Z,5.63
2018-09-19T02:13:42.467Z,6.30
2018-09-19T02:16:10.086Z,5.17
2018-09-19T02:18:38.595Z,5.90
2018-09-19T02:21:10.576Z,6.47
2018-09-19T02:23:38.005Z,5.93
2018-09-19T02:26:07.445Z,6.93
2018-09-19T02:28:34.917Z,7.37
2018-09-19T02:31:02.714Z,7.70
2018-09-19T02:33:30.505Z,7.70
2018-09-19T02:35:58.370Z,7.90
2018-09-19T02:38:26.882Z,7.30
2018-09-19T02:40:54.245Z,7.10
2018-09-19T02:43:21.356Z,7.40
2018-09-19T02:45:49.345Z,7.07
2018-09-19T02:48:16.474Z,7.03
2018-09-19T02:50:43.979Z,6.83
2018-09-19T02:53:11.025Z,6.63
2018-09-19T02:55:37.821Z,6.10
2018-09-19T02:58:06.010Z,7.80
2018-09-19T03:00:33.481Z,5.93
2018-09-19T03:03:01.004Z,6.97
2018-09-19T03:05:29.081Z,6.40
2018-09-19T03:07:56.517Z,5.37
2018-09-19T03:10:23.492Z,6.73
2018-09-19T03:12:51.158Z,6.77
2018-09-19T03:15:19.914Z,7.40
2018-09-19T03:17:47.803Z,5.80
2018-09-19T03:20:16.065Z,6.67
2018-09-19T03:22:44.554Z,6.23
2018-09-19T03:25:13.448Z,5.73
2018-09-19T03:27:41.836Z,5.90
2018-09-19T03:30:09.670Z,5.43
2018-09-19T03:32:36.849Z,6.17
2018-09-19T03:35:08.943Z,6.17
2018-09-19T03:37:36.422Z,5.57
2018-09-19T03:40:04.290Z,5.53
2018-09-19T03:42:32.026Z,5.10
2018-09-19T03:44:59.428Z,5.47
2018-09-19T03:47:27.096Z,5.67
2018-09-19T03:49:55.174Z,6.00
2018-09-19T03:52:23.293Z,5.00
2018-09-19T03:54:51.171Z,5.93
2018-09-19T03:57:18.357Z,5.73
2018-09-19T03:59:45.433Z,6.10
2018-09-19T04:02:13.005Z,6.73
2018-09-19T04:04:40.483Z,7.00
2018-09-19T04:07:07.303Z,6.40
2018-09-19T04:09:34.935Z,6.97
2018-09-19T04:12:02.111Z,6.50
2018-09-19T04:14:30.683Z,6.07
2018-09-19T04:16:58.172Z,6.17
2018-09-19T04:19:25.786Z,7.13
2018-09-19T04:22:01.965Z,6.63
2018-09-19T04:24:30.111Z,6.67
2018-09-19T04:26:56.897Z,6.93
2018-09-19T04:29:24.789Z,5.30
2018-09-19T04:31:53.307Z,6.20
2018-09-19T04:34:21.413Z,5.60
2018-09-19T04:36:48.677Z,5.90
2018-09-19T04:39:16.093Z,6.50
2018-09-19T04:41:43.471Z,6.07
2018-09-19T04:44:11.879Z,5.87
2018-09-19T04:46:39.146Z,6.13
2018-09-19T04:49:06.971Z,6.77
2018-09-19T04:51:34.666Z,5.30
2018-09-19T04:54:01.874Z,5.70
2018-09-19T04:56:29.820Z,5.27
2018-09-19T04:58:58.304Z,5.53
2018-09-19T05:01:24.829Z,4.77
2018-09-19T05:03:52.029Z,5.73
2018-09-19T05:06:20.426Z,5.57
2018-09-19T05:08:47.662Z,5.60
2018-09-19T05:11:16.538Z,5.10
2018-09-19T05:13:44.459Z,5.00
2018-09-19T05:16:11.210Z,5.30
2018-09-19T05:18:39.020Z,5.60
2018-09-19T05:21:06.775Z,4.90
2018-09-19T05:23:34.630Z,6.00
2018-09-19T05:26:02.105Z,4.80
2018-09-19T05:28:29.565Z,5.23
2018-09-19T05:30:56.617Z,5.27
2018-09-19T05:33:24.447Z,5.50
2018-09-19T05:35:51.933Z,5.20
2018-09-19T05:38:19.985Z,5.00
2018-09-19T05:40:48.245Z,5.20
2018-09-19T05:43:17.084Z,4.87
2018-09-19T05:45:44.026Z,5.23
2018-09-19T05:48:11.695Z,5.50
2018-09-19T05:50:42.310Z,5.70
2018-09-19T05:53:09.789Z,5.17
2018-09-19T05:55:36.675Z,5.37
2018-09-19T05:58:05.328Z,5.70
2018-09-19T06:00:33.677Z,5.13
2018-09-19T06:03:01.401Z,5.40
2018-09-19T06:05:29.216Z,4.97
2018-09-19T06:07:56.745Z,4.80
2018-09-19T06:10:24.756Z,5.30
2018-09-19T06:12:52.184Z,5.23
2018-09-19T06:15:19.736Z,5.10
2018-09-19T06:17:47.363Z,4.60
2018-09-19T06:20:15.388Z,4.93
2018-09-19T06:22:42.877Z,5.20
2018-09-19T06:25:10.490Z,4.83
2018-09-19T06:27:37.538Z,4.93
2018-09-19T06:30:05.081Z,5.60
2018-09-19T06:32:32.611Z,5.27
2018-09-19T06:34:59.752Z,5.80
2018-09-19T06:37:28.009Z,4.90
2018-09-19T06:39:55.369Z,4.83
2018-09-19T06:42:23.012Z,5.97
2018-09-19T06:44:49.662Z,6.07
2018-09-19T06:47:17.166Z,5.40
2018-09-19T06:49:44.319Z,5.17
2018-09-19T06:52:11.750Z,5.40
2018-09-19T06:54:39.254Z,5.67
2018-09-19T06:57:07.210Z,5.90
2018-09-19T06:59:35.344Z,5.23
2018-09-19T07:02:03.280Z,5.10
2018-09-19T07:04:30.568Z,6.23
2018-09-19T07:06:57.293Z,5.30
2018-09-19T07:09:25.718Z,5.40
2018-09-19T07:11:53.409Z,6.03
2018-09-19T07:14:20.769Z,4.70
2018-09-19T07:16:48.397Z,5.50
2018-09-19T07:19:16.095Z,5.63
2018-09-19T07:21:43.413Z,5.30
2018-09-19T07:24:11.424Z,4.70
2018-09-19T07:26:38.813Z,5.70
2018-09-19T07:29:06.863Z,5.50
2018-09-19T07:31:34.200Z,5.50
2018-09-19T07:34:00.944Z,5.03
2018-09-19T07:36:28.611Z,5.50
2018-09-19T07:38:56.299Z,5.27
2018-09-19T07:41:24.277Z,4.90
2018-09-19T07:43:53.022Z,5.13
2018-09-19T07:46:21.283Z,4.87
2018-09-19T07:48:48.653Z,5.67
2018-09-19T07:51:16.326Z,4.87
2018-09-19T07:53:44.650Z,4.93
2018-09-19T07:56:12.189Z,5.10
2018-09-19T07:58:39.593Z,5.43
2018-09-19T08:01:07.175Z,4.27
2018-09-19T08:03:34.287Z,4.40
2018-09-19T08:06:01.633Z,5.53
2018-09-19T08:08:28.569Z,4.80
2018-09-19T08:10:56.277Z,4.67
2018-09-19T08:13:25.083Z,5.03
2018-09-19T08:15:52.488Z,4.40
2018-09-19T08:18:20.104Z,4.80
2018-09-19T08:20:47.001Z,4.63
2018-09-19T08:23:14.502Z,4.90
2018-09-19T08:25:41.285Z,5.23
2018-09-19T08:28:08.361Z,5.30
2018-09-19T08:30:35.810Z,4.33
2018-09-19T08:33:02.403Z,4.23
2018-09-19T08:35:29.359Z,4.50
2018-09-19T08:37:56.926Z,4.30
2018-09-19T08:40:23.552Z,4.37
2018-09-19T08:42:50.410Z,3.40
2018-09-19T08:45:18.831Z,4.03
2018-09-19T08:47:45.278Z,5.10
2018-09-19T08:50:11.971Z,4.83
2018-09-19T08:52:39.025Z,4.27
2018-09-19T08:55:07.827Z,4.20
2018-09-19T08:57:35.842Z,4.33
2018-09-19T09:00:03.733Z,4.50
2018-09-19T09:02:31.356Z,4.17
2018-09-19T09:04:59.252Z,5.17
2018-09-19T09:07:26.799Z,3.90
2018-09-19T09:09:54.178Z,4.00
2018-09-19T09:12:22.096Z,4.10
2018-09-19T09:14:50.510Z,4.03
2018-09-19T09:17:17.462Z,4.60
2018-09-19T09:19:45.816Z,4.00
2018-09-19T09:22:12.835Z,3.77
2018-09-19T09:24:40.658Z,4.20
2018-09-19T09:27:09.071Z,4.50
2018-09-19T09:29:37.057Z,4.20
2018-09-19T09:32:04.488Z,4.80
2018-09-19T09:34:32.499Z,3.77
2018-09-19T09:36:59.842Z,3.40
2018-09-19T09:39:27.907Z,3.40
2018-09-19T09:41:56.450Z,3.90
2018-09-19T09:44:24.232Z,4.23
2018-09-19T09:46:51.599Z,4.00
2018-09-19T09:49:18.494Z,4.00
2018-09-19T09:51:46.260Z,4.20
2018-09-19T09:54:14.298Z,3.70
2018-09-19T09:56:41.738Z,4.03
2018-09-19T09:59:08.748Z,4.00
2018-09-19T10:01:36.558Z,3.90
2018-09-19T10:04:05.045Z,4.73
2018-09-19T10:06:32.677Z,4.23
2018-09-19T10:09:00.475Z,4.20
2018-09-19T10:11:27.684Z,3.60
2018-09-19T10:13:54.770Z,4.13
2018-09-19T10:16:22.719Z,4.47
2018-09-19T10:18:50.747Z,4.40
2018-09-19T10:21:17.440Z,3.63
2018-09-19T10:23:44.279Z,4.10
2018-09-19T10:26:11.691Z,4.10
2018-09-19T10:28:38.627Z,4.00
2018-09-19T10:31:07.126Z,4.10
2018-09-19T10:33:36.038Z,4.23
2018-09-19T10:36:04.735Z,3.93
2018-09-19T10:38:32.046Z,3.47
2018-09-19T10:40:58.666Z,3.50
2018-09-19T10:43:26.380Z,4.10
2018-09-19T10:45:53.813Z,3.13
2018-09-19T10:48:21.023Z,3.60
2018-09-19T10:50:48.426Z,3.80
2018-09-19T10:53:16.091Z,3.70
2018-09-19T10:55:43.737Z,3.73
2018-09-19T10:58:12.475Z,3.70
2018-09-19T11:00:39.990Z,3.03
2018-09-19T11:03:06.962Z,4.20
2018-09-19T11:05:34.653Z,3.60
2018-09-19T11:08:03.236Z,2.80
2018-09-19T11:10:31.005Z,3.60
2018-09-19T11:12:58.398Z,3.53
2018-09-19T11:15:25.296Z,3.53
2018-09-19T11:17:52.957Z,3.63
2018-09-19T11:20:20.432Z,3.67
2018-09-19T11:22:46.976Z,3.00
2018-09-19T11:25:14.212Z,3.37
2018-09-19T11:27:41.934Z,3.67
2018-09-19T11:30:09.332Z,3.33
2018-09-19T11:32:37.652Z,3.07
2018-09-19T11:35:04.853Z,3.47
2018-09-19T11:37:32.122Z,3.67
2018-09-19T11:39:59.487Z,3.57
2018-09-19T11:42:25.791Z,3.20
2018-09-19T11:44:52.976Z,3.23
2018-09-19T11:47:20.456Z,3.50
2018-09-19T11:49:47.450Z,3.10
2018-09-19T11:52:15.309Z,3.30
2018-09-19T11:54:43.714Z,3.10
2018-09-19T11:57:11.473Z,3.07
2018-09-19T11:59:39.901Z,2.83
2018-09-19T12:02:06.856Z,3.57
2018-09-19T12:04:35.142Z,3.00
2018-09-19T12:07:01.932Z,3.17
2018-09-19T12:09:28.709Z,3.67
2018-09-19T12:11:56.465Z,3.13
2018-09-19T12:14:23.072Z,2.90
2018-09-19T12:16:50.805Z,3.07
2018-09-19T12:19:18.287Z,2.80
2018-09-19T12:21:45.738Z,3.23
2018-09-19T12:24:13.447Z,3.50
2018-09-19T12:26:41.359Z,3.07
2018-09-19T12:29:08.913Z,3.00
2018-09-19T12:31:37.561Z,3.30
2018-09-19T12:34:05.042Z,3.50
2018-09-19T12:36:31.953Z,3.30
2018-09-19T12:38:59.514Z,3.20
2018-09-19T12:41:27.056Z,2.67
2018-09-19T12:43:54.773Z,2.87
2018-09-19T12:46:23.186Z,3.43
2018-09-19T12:48:49.948Z,3.17
2018-09-19T12:51:17.425Z,3.00
2018-09-19T12:53:45.231Z,3.27
2018-09-19T12:56:13.048Z,3.00
2018-09-19T12:58:40.250Z,2.60
2018-09-19T13:01:09.846Z,3.80
2018-09-19T13:03:37.422Z,2.73
2018-09-19T13:06:04.412Z,2.63
2018-09-19T13:08:31.584Z,3.10
2018-09-19T13:10:58.146Z,2.97
2018-09-19T13:13:25.634Z,3.07
2018-09-19T13:15:53.092Z,3.10
2018-09-19T13:18:21.653Z,2.93
2018-09-19T13:20:52.221Z,3.03
2018-09-19T13:23:19.730Z,3.43
2018-09-19T13:25:47.171Z,3.40
2018-09-19T13:28:13.865Z,2.70
2018-09-19T13:30:41.370Z,2.70
2018-09-19T13:33:08.075Z,3.10
2018-09-19T13:35:36.100Z,3.20
2018-09-19T13:38:03.235Z,3.33
2018-09-19T13:40:31.111Z,2.33
2018-09-19T13:42:58.353Z,3.07
2018-09-19T13:45:26.004Z,3.10
2018-09-19T13:47:52.744Z,3.67
2018-09-19T13:50:20.449Z,2.90
2018-09-19T13:52:47.113Z,3.10
2018-09-19T13:55:14.815Z,2.77
2018-09-19T13:57:41.653Z,3.00
2018-09-19T14:00:09.552Z,3.17
2018-09-19T14:02:38.059Z,3.23
2018-09-19T14:05:06.057Z,2.83
2018-09-19T14:07:33.453Z,2.93
2018-09-19T14:10:01.855Z,3.07
2018-09-19T14:12:28.875Z,3.57
2018-09-19T14:14:56.546Z,4.00
2018-09-19T14:17:24.032Z,3.33
2018-09-19T14:19:50.849Z,2.73
2018-09-19T14:22:19.642Z,3.37
2018-09-19T14:24:46.977Z,3.60
2018-09-19T14:27:13.767Z,2.57
2018-09-19T14:29:42.020Z,3.30
2018-09-19T14:32:09.668Z,3.27
2018-09-19T14:34:37.271Z,3.40
2018-09-19T14:37:05.106Z,3.40
2018-09-19T14:39:33.061Z,3.67
2018-09-19T14:42:01.621Z,3.03
2018-09-19T14:44:28.381Z,3.57
2018-09-19T14:46:56.237Z,3.03
2018-09-19T14:49:23.622Z,3.57
2018-09-19T14:51:50.279Z,3.70
2018-09-19T14:54:17.266Z,3.60
2018-09-19T14:56:46.024Z,2.90
2018-09-19T14:59:15.592Z,3.60
2018-09-19T15:01:43.866Z,3.00
2018-09-19T15:04:15.102Z,3.67
2018-09-19T15:06:42.169Z,3.93
2018-09-19T15:09:10.041Z,3.60
2018-09-19T15:11:37.409Z,3.80
2018-09-19T15:14:05.511Z,3.30
2018-09-19T15:16:33.526Z,3.60
2018-09-19T15:19:01.292Z,2.90
2018-09-19T15:21:28.904Z,3.73
2018-09-19T15:23:56.446Z,4.30
2018-09-19T15:26:23.276Z,3.67
2018-09-19T15:28:50.979Z,4.03
2018-09-19T15:31:18.056Z,3.37
2018-09-19T15:33:45.647Z,3.93
2018-09-19T15:36:13.390Z,3.97
2018-09-19T15:38:41.886Z,3.53
2018-09-19T15:41:09.635Z,3.87
2018-09-19T15:43:36.968Z,3.70
2018-09-19T15:46:03.818Z,4.13
2018-09-19T15:48:30.935Z,4.00
2018-09-19T15:50:59.296Z,3.43
2018-09-19T15:53:27.253Z,3.80
2018-09-19T15:55:55.531Z,3.70
2018-09-19T15:58:22.327Z,3.70
2018-09-19T16:00:50.195Z,4.03
2018-09-19T16:03:17.292Z,3.87
2018-09-19T16:05:54.184Z,4.23
2018-09-19T16:08:21.946Z,4.00
2018-09-19T16:10:48.585Z,3.50
2018-09-19T16:13:16.267Z,3.73
2018-09-19T16:15:43.656Z,3.97
2018-09-19T16:18:10.262Z,3.87
2018-09-19T16:20:36.930Z,3.70
2018-09-19T16:23:04.086Z,3.43
2018-09-19T16:25:31.437Z,2.80
2018-09-19T16:27:58.593Z,2.60
2018-09-19T16:30:26.024Z,3.20
2018-09-19T16:32:53.328Z,3.43
2018-09-19T16:35:21.451Z,3.93
2018-09-19T16:37:49.445Z,3.10
2018-09-19T16:40:16.868Z,3.80
2018-09-19T16:42:44.078Z,3.80
2018-09-19T16:45:11.399Z,4.27
2018-09-19T16:47:37.993Z,3.70
2018-09-19T16:50:05.059Z,3.60
2018-09-19T16:52:33.647Z,3.90
2018-09-19T16:55:02.362Z,3.40
2018-09-19T16:57:30.035Z,3.57
2018-09-19T16:59:58.076Z,3.70
2018-09-19T17:02:29.399Z,4.17
2018-09-19T17:04:56.279Z,3.40
2018-09-19T17:07:22.920Z,3.90
2018-09-19T17:09:50.724Z,3.93
2018-09-19T17:12:19.270Z,4.50
2018-09-19T17:14:47.464Z,4.43
2018-09-19T17:17:14.074Z,54.10
2018-09-19T17:19:40.932Z,26.50
2018-09-19T17:22:08.427Z,29.93
2018-09-19T17:24:35.419Z,17.90
2018-09-19T17:27:03.211Z,17.33
2018-09-19T17:29:31.275Z,18.73
2018-09-19T17:31:59.150Z,19.30
2018-09-19T17:34:26.812Z,17.90
2018-09-19T17:36:53.612Z,15.80
2018-09-19T17:39:22.117Z,14.87
2018-09-19T17:41:49.710Z,13.83
2018-09-19T17:44:17.171Z,14.37
2018-09-19T17:46:45.062Z,12.97
2018-09-19T17:49:13.054Z,14.63
2018-09-19T17:51:40.675Z,13.70
2018-09-19T17:54:09.029Z,12.50
2018-09-19T17:56:37.553Z,13.90
2018-09-19T17:59:04.438Z,12.33
2018-09-19T18:01:32.209Z,13.63
2018-09-19T18:03:59.800Z,12.50
2018-09-19T18:06:27.032Z,12.10
2018-09-19T18:08:54.626Z,12.77
2018-09-19T18:11:22.096Z,12.73
2018-09-19T18:13:49.214Z,11.27
2018-09-19T18:18:48.497Z,10.40
2018-09-19T18:21:16.093Z,10.83
2018-09-19T18:23:43.799Z,11.70
2018-09-19T18:26:10.884Z,12.53
2018-09-19T18:28:38.840Z,12.50
2018-09-19T18:31:06.302Z,13.07
2018-09-19T18:33:33.051Z,11.53
2018-09-19T18:36:00.525Z,12.07
2018-09-19T18:38:29.214Z,11.30
2018-09-19T18:40:57.590Z,11.43
2018-09-19T18:43:24.828Z,10.50
2018-09-19T18:45:52.743Z,11.30
2018-09-19T18:48:20.157Z,10.57
2018-09-19T18:50:48.220Z,11.40
2018-09-19T18:53:16.607Z,10.50
2018-09-19T18:55:45.456Z,11.47
2018-09-19T18:58:13.477Z,10.27
2018-09-19T19:00:41.213Z,9.93
2018-09-19T19:03:08.670Z,9.27
2018-09-19T19:05:35.498Z,10.70
2018-09-19T19:08:03.638Z,9.70
2018-09-19T19:10:31.275Z,10.27
2018-09-19T19:12:59.034Z,10.03
2018-09-19T19:15:26.618Z,9.97
2018-09-19T19:17:54.360Z,9.80
2018-09-19T19:20:22.412Z,10.40
2018-09-19T19:22:49.717Z,10.20
2018-09-19T19:25:16.407Z,10.10
2018-09-19T19:27:43.468Z,9.13
2018-09-19T19:30:11.751Z,10.17
2018-09-19T19:32:43.313Z,9.50
2018-09-19T19:35:11.538Z,8.97
2018-09-19T19:37:38.973Z,8.83
2018-09-19T19:40:06.335Z,9.10
2018-09-19T19:42:34.120Z,9.67
2018-09-19T19:45:02.312Z,8.37
2018-09-19T19:47:30.254Z,9.80
2018-09-19T19:49:57.841Z,10.47
2018-09-19T19:52:25.747Z,10.70
2018-09-19T19:54:53.195Z,8.80
2018-09-19T19:57:19.860Z,10.17
2018-09-19T19:59:47.869Z,9.90
2018-09-19T20:02:15.652Z,10.93
2018-09-19T20:04:43.290Z,13.33
2018-09-19T20:07:11.051Z,12.80
2018-09-19T20:09:38.482Z,15.00
2018-09-19T20:12:05.542Z,15.17
2018-09-19T20:14:33.524Z,13.57
2018-09-19T20:17:01.519Z,13.20
2018-09-19T20:19:29.183Z,12.27
2018-09-19T20:21:56.796Z,12.30
2018-09-19T20:24:24.569Z,11.70
2018-09-19T20:26:52.579Z,11.20
2018-09-19T20:29:19.988Z,13.17
2018-09-19T20:31:47.066Z,11.20
2018-09-19T20:34:15.072Z,12.07
2018-09-19T20:36:42.676Z,10.13
2018-09-19T20:39:10.502Z,11.27
2018-09-19T20:41:38.415Z,11.30
2018-09-19T20:44:06.016Z,11.47
2018-09-19T20:46:33.834Z,10.20
2018-09-19T20:49:01.862Z,11.23
2018-09-19T20:51:29.516Z,11.97
2018-09-19T20:53:57.568Z,12.53
2018-09-19T20:56:26.043Z,10.77
2018-09-19T20:58:53.527Z,11.07
2018-09-19T21:01:21.271Z,11.87
2018-09-19T21:03:49.250Z,11.63
2018-09-19T21:06:16.807Z,10.80
2018-09-19T21:08:45.156Z,11.17
2018-09-19T21:11:13.463Z,11.10
2018-09-19T21:13:42.461Z,10.93
2018-09-19T21:16:10.443Z,10.93
2018-09-19T21:18:38.118Z,10.43
2018-09-19T21:21:06.334Z,11.60
2018-09-19T21:23:34.026Z,11.90
2018-09-19T21:26:01.840Z,10.93
2018-09-19T21:28:29.571Z,11.43
2018-09-19T21:30:57.748Z,11.50
2018-09-19T21:33:24.811Z,10.97
2018-09-19T21:35:51.817Z,12.00
2018-09-19T21:38:19.194Z,11.47
2018-09-19T21:40:47.168Z,11.57
2018-09-19T21:43:14.772Z,10.57
2018-09-19T21:45:42.606Z,10.47
2018-09-19T21:48:10.236Z,9.97
2018-09-19T21:50:38.205Z,9.70
2018-09-19T21:53:05.698Z,10.37
2018-09-19T21:55:34.509Z,10.50
2018-09-19T21:58:02.240Z,10.33
2018-09-19T22:00:29.835Z,10.77
2018-09-19T22:02:57.117Z,10.60
2018-09-19T22:05:23.808Z,10.63
2018-09-19T22:07:51.793Z,9.97
2018-09-19T22:10:19.537Z,11.17
2018-09-19T22:12:47.153Z,11.40
2018-09-19T22:15:15.037Z,10.90
2018-09-19T22:17:42.923Z,10.57
2018-09-19T22:20:10.740Z,10.20
2018-09-19T22:22:37.456Z,9.53
2018-09-19T22:25:05.565Z,65.90
2018-09-19T22:27:33.930Z,16.70
2018-09-19T22:30:01.398Z,16.30
2018-09-19T22:32:29.040Z,15.40
2018-09-19T22:34:56.395Z,16.03
2018-09-19T22:37:24.189Z,15.60
2018-09-19T22:39:52.046Z,14.53
2018-09-19T22:42:19.878Z,15.20
2018-09-19T22:44:47.739Z,14.00
2018-09-19T22:47:15.554Z,14.00
2018-09-19T22:49:42.873Z,14.70
2018-09-19T22:52:10.096Z,14.80
2018-09-19T22:54:37.736Z,15.13
2018-09-19T22:57:05.149Z,15.60
2018-09-19T22:59:32.107Z,15.70
2018-09-19T23:01:45.865Z,14.80
2018-09-19T23:03:50.861Z,13.37
2018-09-19T23:05:55.684Z,12.43
2018-09-19T23:08:00.952Z,14.60
2018-09-19T23:10:05.844Z,13.20
2018-09-19T23:12:10.732Z,11.93
2018-09-19T23:14:15.911Z,14.00
2018-09-19T23:16:20.926Z,13.90
2018-09-19T23:18:26.692Z,13.03
2018-09-19T23:20:31.416Z,13.03
2018-09-19T23:22:36.414Z,12.90
2018-09-19T23:24:41.448Z,13.60
2018-09-19T23:26:46.384Z,14.20
2018-09-19T23:28:51.609Z,14.00
2018-09-19T23:30:56.565Z,12.57
2018-09-19T23:33:01.582Z,11.20
2018-09-19T23:35:06.497Z,12.07
2018-09-19T23:37:11.448Z,13.40
2018-09-19T23:39:16.432Z,13.37
2018-09-19T23:41:21.820Z,14.57
2018-09-19T23:43:26.857Z,10.23
2018-09-19T23:45:32.282Z,9.50
2018-09-19T23:47:37.251Z,7.70
2018-09-19T23:49:42.106Z,7.37
2018-09-19T23:51:49.048Z,7.13
2018-09-19T23:53:54.035Z,6.90
2018-09-19T23:55:59.222Z,6.70
2018-09-19T23:58:04.447Z,5.40
